Time;durP1;ratioP1;P1;durP2;ratioP2;P2;SDS_P1;SDS_P2;PMS_P1;PMS_P2;Temp;Humidity;BMP_temperature;BMP_pressure;BME280_temperature;BME280_humidity;BME280_pressure;Samples;Min_cycle;Max_cycle;Signal;HPM_P1;HPM_P2
2022/02/22 00:01:16;;;;;;;1.83;0.73;;;18.40;49.30;;;;;;5043037;28;20168;-83
2022/02/22 00:03:42;;;;;;;3.28;1.27;;;18.40;49.20;;;;;;5060097;28;20156;-82
2022/02/22 00:06:07;;;;;;;2.42;0.88;;;18.50;49.40;;;;;;5093989;28;20188;-82
2022/02/22 00:08:33;;;;;;;2.92;0.80;;;18.40;49.50;;;;;;5076291;28;20176;-82
2022/02/22 00:10:59;;;;;;;1.77;0.57;;;18.40;49.40;;;;;;5059294;28;20161;-82
2022/02/22 00:13:25;;;;;;;2.95;0.63;;;18.40;49.40;;;;;;5042570;28;20528;-82
2022/02/22 00:15:52;;;;;;;1.85;0.77;;;18.30;49.60;;;;;;5042667;28;20204;-82
2022/02/22 00:18:18;;;;;;;3.42;0.70;;;18.40;49.60;;;;;;5058945;28;20581;-82
2022/02/22 00:20:44;;;;;;;3.58;0.50;;;18.40;49.60;;;;;;5093781;28;20565;-82
2022/02/22 00:23:11;;;;;;;2.20;0.80;;;18.40;49.60;;;;;;5059827;28;20247;-82
2022/02/22 00:25:36;;;;;;;2.63;0.60;;;18.40;49.60;;;;;;5075643;28;20293;-82
2022/02/22 00:28:02;;;;;;;5.35;0.70;;;18.40;49.40;;;;;;5093534;28;20236;-82
2022/02/22 00:30:27;;;;;;;3.72;0.60;;;18.40;49.60;;;;;;5075296;28;20744;-82
2022/02/22 00:32:53;;;;;;;2.72;0.65;;;18.40;49.70;;;;;;5058932;28;20156;-82
2022/02/22 00:35:19;;;;;;;3.88;0.80;;;18.40;49.70;;;;;;5093736;28;20653;-82
2022/02/22 00:37:44;;;;;;;2.85;0.68;;;18.40;49.60;;;;;;5058349;28;20165;-82
2022/02/22 00:40:11;;;;;;;2.60;0.57;;;18.30;49.70;;;;;;5058979;28;20156;-82
2022/02/22 00:42:37;;;;;;;1.13;0.57;;;18.40;49.60;;;;;;5058775;28;20177;-82
2022/02/22 00:45:04;;;;;;;1.83;0.52;;;18.40;50.10;;;;;;5075380;28;20659;-82
2022/02/22 00:47:30;;;;;;;1.98;0.60;;;18.40;50.30;;;;;;5058664;28;20638;-82
2022/02/22 00:49:58;;;;;;;2.95;0.70;;;18.40;49.60;;;;;;5058862;28;20259;-82
2022/02/22 00:52:23;;;;;;;3.40;0.70;;;18.30;49.70;;;;;;5024966;28;20289;-83
2022/02/22 00:54:49;;;;;;;3.50;0.70;;;18.30;49.70;;;;;;5058521;28;20673;-82
2022/02/22 00:57:15;;;;;;;1.13;0.57;;;18.30;49.70;;;;;;5042026;28;20160;-82
2022/02/22 00:59:40;;;;;;;3.55;0.90;;;18.30;49.80;;;;;;5058804;28;20611;-83
2022/02/22 01:02:06;;;;;;;3.63;0.82;;;18.30;49.80;;;;;;5058700;28;20163;-82
2022/02/22 01:04:32;;;;;;;2.90;0.70;;;18.30;49.70;;;;;;5093358;28;20607;-82
2022/02/22 01:06:57;;;;;;;3.45;0.95;;;18.20;49.80;;;;;;5058829;28;20538;-82
2022/02/22 01:09:23;;;;;;;2.35;0.70;;;18.30;49.60;;;;;;5093515;28;20153;-82
2022/02/22 01:11:48;;;;;;;1.92;0.65;;;18.30;49.70;;;;;;5058329;28;20172;-83
2022/02/22 01:14:16;;;;;;;2.83;0.70;;;18.30;49.70;;;;;;5059006;28;20217;-82
2022/02/22 01:16:42;;;;;;;5.75;1.17;;;18.30;50.00;;;;;;5007935;28;20208;-82
2022/02/22 01:19:09;;;;;;;3.47;0.88;;;18.30;50.10;;;;;;5007794;28;20214;-82
2022/02/22 01:21:36;;;;;;;3.47;0.80;;;18.20;50.00;;;;;;5024533;28;20173;-83
2022/02/22 01:24:04;;;;;;;2.95;0.90;;;18.30;49.90;;;;;;5008040;28;20181;-83
2022/02/22 01:26:30;;;;;;;2.70;0.63;;;18.20;50.10;;;;;;5042053;28;20173;-82
2022/02/22 01:28:58;;;;;;;4.63;0.80;;;18.20;50.00;;;;;;5058241;28;20596;-82
2022/02/22 01:31:24;;;;;;;3.28;0.90;;;18.30;50.00;;;;;;5042224;28;20177;-82
2022/02/22 01:33:54;;;;;;;1.30;0.70;;;18.20;50.00;;;;;;5042184;28;20179;-82
2022/02/22 01:36:20;;;;;;;0.88;0.70;;;18.20;50.00;;;;;;5059536;28;20212;-82
2022/02/22 01:38:46;;;;;;;0.77;0.47;;;18.20;50.10;;;;;;5041922;28;20244;-83
2022/02/22 01:41:12;;;;;;;3.03;0.50;;;18.20;50.20;;;;;;5075449;28;20623;-82
2022/02/22 01:43:39;;;;;;;4.30;0.80;;;18.20;50.00;;;;;;5092928;28;20156;-83
2022/02/22 01:46:05;;;;;;;1.70;0.63;;;18.20;50.30;;;;;;5058403;28;20180;-82
2022/02/22 01:48:30;;;;;;;3.47;0.40;;;18.20;50.00;;;;;;5058601;28;20656;-82
2022/02/22 01:50:56;;;;;;;1.25;0.70;;;18.20;50.10;;;;;;5061930;28;20259;-82
2022/02/22 01:53:22;;;;;;;1.85;0.50;;;18.20;50.10;;;;;;5078793;28;20232;-82
2022/02/22 01:55:49;;;;;;;3.30;0.73;;;18.20;50.10;;;;;;5096558;28;20530;-82
2022/02/22 01:58:15;;;;;;;1.95;0.60;;;18.20;50.20;;;;;;5028160;28;20543;-85
2022/02/22 02:00:45;;;;;;;3.60;0.77;;;18.20;50.20;;;;;;5028015;28;20544;-82
2022/02/22 02:03:13;;;;;;;1.55;0.80;;;18.20;50.00;;;;;;5029674;28;20223;-82
2022/02/22 02:05:40;;;;;;;2.28;0.60;;;18.20;50.20;;;;;;5044665;28;20188;-82
2022/02/22 02:08:06;;;;;;;2.25;0.60;;;18.20;50.20;;;;;;5027793;28;20212;-83
2022/02/22 02:10:32;;;;;;;1.65;0.63;;;18.20;50.30;;;;;;5078227;28;20161;-82
2022/02/22 02:12:57;;;;;;;2.30;0.50;;;18.20;50.20;;;;;;5096569;28;20161;-82
2022/02/22 02:15:23;;;;;;;0.82;0.55;;;18.20;50.20;;;;;;5078102;28;20215;-82
2022/02/22 02:17:49;;;;;;;1.30;0.50;;;18.20;50.20;;;;;;5096317;28;20210;-82
2022/02/22 02:20:15;;;;;;;2.38;0.50;;;18.10;50.20;;;;;;5061635;28;20165;-82
2022/02/22 02:22:43;;;;;;;1.73;0.45;;;18.20;50.30;;;;;;5096007;28;20161;-82
2022/02/22 02:25:11;;;;;;;0.80;0.40;;;18.20;50.10;;;;;;5044573;28;20187;-82
2022/02/22 02:27:39;;;;;;;2.13;0.60;;;18.20;50.40;;;;;;5027670;28;20658;-82
2022/02/22 02:30:08;;;;;;;4.43;0.60;;;18.10;50.40;;;;;;5023963;28;20237;-82
2022/02/22 02:32:35;;;;;;;2.40;0.70;;;18.20;50.30;;;;;;5041297;28;20551;-82
2022/02/22 02:35:03;;;;;;;2.53;0.68;;;18.20;50.30;;;;;;5023678;28;20205;-82
2022/02/22 02:37:30;;;;;;;1.10;0.55;;;18.20;50.40;;;;;;5056887;28;20185;-82
2022/02/22 02:39:56;;;;;;;1.20;0.60;;;18.20;50.40;;;;;;5024046;28;20189;-82
2022/02/22 02:42:23;;;;;;;0.82;0.57;;;18.10;50.30;;;;;;5056993;28;20193;-82
2022/02/22 02:44:50;;;;;;;2.42;0.60;;;18.20;50.50;;;;;;5040626;28;20531;-83
2022/02/22 02:47:16;;;;;;;1.75;0.70;;;18.10;50.30;;;;;;5040645;28;20188;-82
2022/02/22 02:49:44;;;;;;;1.83;0.90;;;18.10;50.50;;;;;;5057566;28;20150;-82
2022/02/22 02:52:10;;;;;;;3.38;0.80;;;18.10;50.40;;;;;;5041169;28;20172;-82
2022/02/22 02:54:37;;;;;;;1.35;0.60;;;18.20;50.50;;;;;;5041240;28;20244;-82
2022/02/22 02:57:05;;;;;;;2.05;0.55;;;18.00;50.60;;;;;;5057564;28;20235;-82
2022/02/22 02:59:32;;;;;;;2.33;0.80;;;18.10;50.50;;;;;;5042570;28;20244;-82
2022/02/22 03:01:59;;;;;;;3.28;0.82;;;18.10;50.40;;;;;;5045401;28;20185;-82
2022/02/22 03:04:26;;;;;;;2.70;0.63;;;18.10;50.20;;;;;;5029831;28;20173;-83
2022/02/22 03:06:52;;;;;;;1.92;0.60;;;18.10;50.50;;;;;;5047290;28;20177;-82
2022/02/22 03:09:18;;;;;;;1.80;0.68;;;18.20;50.70;;;;;;5047845;28;20631;-82
2022/02/22 03:11:47;;;;;;;1.02;0.63;;;18.10;50.80;;;;;;5061497;28;20196;-83
2022/02/22 03:14:12;;;;;;;3.67;0.52;;;18.10;50.20;;;;;;5044655;28;20700;-83
2022/02/22 03:16:38;;;;;;;1.15;0.47;;;18.10;50.60;;;;;;5077538;28;20209;-83
2022/02/22 03:19:05;;;;;;;2.97;0.60;;;18.10;50.50;;;;;;5078021;28;20158;-83
2022/02/22 03:21:31;;;;;;;1.45;0.73;;;18.10;50.60;;;;;;5058274;28;20207;-83
2022/02/22 03:23:57;;;;;;;3.95;0.70;;;18.20;50.30;;;;;;5056718;28;20165;-83
2022/02/22 03:26:22;;;;;;;2.70;0.60;;;18.10;50.70;;;;;;5073484;28;20169;-83
2022/02/22 03:28:48;;;;;;;2.50;0.93;;;18.10;50.30;;;;;;5057814;28;20184;-83
2022/02/22 03:31:14;;;;;;;2.80;0.85;;;18.10;50.60;;;;;;5060174;28;20187;-83
2022/02/22 03:33:41;;;;;;;1.02;0.45;;;18.10;50.70;;;;;;5094669;28;20244;-83
2022/02/22 03:36:07;;;;;;;3.63;0.70;;;18.10;50.50;;;;;;5009465;28;20269;-83
2022/02/22 03:38:34;;;;;;;2.80;0.60;;;18.10;50.70;;;;;;5042886;28;20184;-83
2022/02/22 03:41:02;;;;;;;3.35;0.70;;;18.10;50.60;;;;;;5026035;28;20176;-83
2022/02/22 03:43:28;;;;;;;1.45;0.60;;;18.10;50.80;;;;;;5026839;28;20188;-83
2022/02/22 03:45:54;;;;;;;1.40;0.80;;;18.00;50.50;;;;;;5059934;28;20157;-82
2022/02/22 03:48:19;;;;;;;2.58;0.93;;;18.00;50.60;;;;;;5094444;28;20164;-83
2022/02/22 03:50:45;;;;;;;0.85;0.50;;;18.10;50.70;;;;;;5059718;28;20338;-84
2022/02/22 03:53:11;;;;;;;1.50;0.50;;;18.10;50.70;;;;;;5059920;28;20145;-82
2022/02/22 03:55:36;;;;;;;1.40;0.50;;;18.10;50.80;;;;;;5076102;28;20257;-82
2022/02/22 03:58:02;;;;;;;2.00;0.70;;;18.00;50.70;;;;;;5059449;28;20161;-82
2022/02/22 04:00:28;;;;;;;3.22;0.80;;;18.00;50.60;;;;;;5076126;28;20231;-82
2022/02/22 04:02:54;;;;;;;2.60;0.68;;;18.10;50.90;;;;;;5076193;28;20159;-83
2022/02/22 04:05:20;;;;;;;3.28;0.70;;;18.10;50.70;;;;;;5043195;28;20176;-82
2022/02/22 04:07:46;;;;;;;2.45;0.63;;;18.10;50.80;;;;;;5094170;28;20149;-82
2022/02/22 04:10:12;;;;;;;2.60;0.70;;;18.10;50.70;;;;;;5059353;28;20513;-82
2022/02/22 04:12:38;;;;;;;1.33;0.70;;;18.10;50.90;;;;;;5041914;28;20172;-82
2022/02/22 04:15:05;;;;;;;2.55;0.65;;;18.10;50.70;;;;;;5059244;28;20188;-82
2022/02/22 04:17:31;;;;;;;2.53;0.70;;;18.10;50.90;;;;;;5093977;28;20149;-82
2022/02/22 04:19:58;;;;;;;3.38;0.70;;;18.00;50.80;;;;;;5059543;28;20160;-82
2022/02/22 04:22:24;;;;;;;1.42;0.55;;;18.00;50.70;;;;;;5059339;28;20671;-81
2022/02/22 04:24:49;;;;;;;2.10;0.88;;;18.00;50.60;;;;;;5075811;28;20227;-82
2022/02/22 04:27:15;;;;;;;2.20;0.98;;;17.90;50.80;;;;;;5059221;28;20145;-82
2022/02/22 04:29:41;;;;;;;2.50;0.60;;;18.00;51.30;;;;;;5038736;28;20589;-82
2022/02/22 04:32:08;;;;;;;1.90;0.90;;;18.00;50.70;;;;;;5072142;28;20174;-82
2022/02/22 04:34:36;;;;;;;1.48;0.70;;;18.00;50.80;;;;;;5054902;28;20188;-83
2022/02/22 04:37:06;;;;;;;2.30;0.52;;;18.00;50.70;;;;;;5021824;28;20193;-82
2022/02/22 04:39:31;;;;;;;1.60;0.60;;;18.00;50.80;;;;;;5021635;28;20284;-82
2022/02/22 04:41:58;;;;;;;2.13;0.68;;;18.00;50.70;;;;;;5038247;28;20810;-82
2022/02/22 04:44:26;;;;;;;4.15;0.88;;;18.00;51.20;;;;;;5036182;28;20260;-82
2022/02/22 04:46:51;;;;;;;1.77;0.68;;;18.00;51.20;;;;;;5052485;28;20191;-82
2022/02/22 04:49:17;;;;;;;1.25;0.63;;;18.00;51.10;;;;;;5037031;28;20169;-83
2022/02/22 04:51:43;;;;;;;2.28;0.70;;;18.00;51.10;;;;;;5070358;28;20164;-82
2022/02/22 04:54:09;;;;;;;2.78;0.70;;;18.00;51.20;;;;;;5053422;28;20241;-82
2022/02/22 04:56:35;;;;;;;2.00;0.80;;;17.90;51.10;;;;;;5037132;28;20205;-82
2022/02/22 04:59:01;;;;;;;2.38;1.05;;;18.00;51.00;;;;;;5055437;28;20215;-82
2022/02/22 05:01:26;;;;;;;1.65;0.60;;;18.00;50.90;;;;;;5038955;28;20164;-82
2022/02/22 05:03:52;;;;;;;1.23;0.60;;;18.00;50.90;;;;;;5055469;28;20218;-82
2022/02/22 05:06:18;;;;;;;2.08;0.70;;;18.00;50.70;;;;;;5055696;28;20162;-83
2022/02/22 05:08:43;;;;;;;2.53;0.60;;;18.00;50.70;;;;;;5072567;28;20150;-82
2022/02/22 05:11:09;;;;;;;0.73;0.47;;;18.00;50.60;;;;;;5072477;28;20240;-82
2022/02/22 05:13:35;;;;;;;2.15;0.60;;;18.00;50.70;;;;;;5072760;28;20173;-82
2022/02/22 05:16:02;;;;;;;1.38;0.60;;;18.10;50.50;;;;;;5072750;28;20217;-82
2022/02/22 05:18:27;;;;;;;1.70;0.70;;;18.00;50.60;;;;;;5072439;28;20157;-82
2022/02/22 05:20:54;;;;;;;1.35;0.50;;;18.00;50.80;;;;;;5038958;28;20172;-82
2022/02/22 05:23:22;;;;;;;1.98;0.80;;;18.00;51.10;;;;;;5039443;28;20223;-82
2022/02/22 05:25:48;;;;;;;1.83;0.60;;;18.00;50.80;;;;;;5044615;28;20166;-82
2022/02/22 05:28:13;;;;;;;1.33;0.70;;;18.00;49.70;;;;;;5077093;28;20514;-82
2022/02/22 05:30:39;;;;;;;1.85;0.60;;;18.00;49.90;;;;;;5094049;28;20277;-82
2022/02/22 05:33:05;;;;;;;1.77;0.55;;;18.00;50.30;;;;;;5062614;28;20222;-82
2022/02/22 05:35:31;;;;;;;1.70;0.77;;;18.00;49.70;;;;;;5097121;28;20234;-82
2022/02/22 05:37:56;;;;;;;0.77;0.60;;;18.10;48.60;;;;;;5078967;28;20171;-81
2022/02/22 05:40:22;;;;;;;1.45;0.70;;;18.20;48.90;;;;;;5078872;28;20199;-82
2022/02/22 05:42:47;;;;;;;1.65;0.65;;;18.20;48.60;;;;;;5079361;28;20187;-82
2022/02/22 05:45:13;;;;;;;1.92;0.70;;;18.20;48.80;;;;;;5079591;28;20161;-81
2022/02/22 05:47:40;;;;;;;2.15;0.60;;;18.30;48.90;;;;;;5062586;28;20153;-82
2022/02/22 05:50:07;;;;;;;1.33;0.70;;;18.30;48.90;;;;;;5061241;28;20181;-82
2022/02/22 05:52:34;;;;;;;0.70;0.52;;;18.20;49.00;;;;;;5061613;28;20181;-82
2022/02/22 05:55:01;;;;;;;2.03;0.63;;;18.30;48.40;;;;;;5045003;28;20303;-82
2022/02/22 05:57:27;;;;;;;0.68;0.57;;;18.30;49.00;;;;;;5044644;28;20184;-82
2022/02/22 05:59:52;;;;;;;1.15;0.63;;;18.20;48.70;;;;;;5096866;28;20164;-83
2022/02/22 06:02:18;;;;;;;2.67;0.70;;;18.30;48.50;;;;;;5078511;28;20157;-82
2022/02/22 06:04:44;;;;;;;1.25;0.60;;;18.30;48.30;;;;;;5078240;28;20156;-82
2022/02/22 06:07:09;;;;;;;0.80;0.60;;;18.30;48.40;;;;;;5062262;28;20177;-82
2022/02/22 06:09:37;;;;;;;0.80;0.55;;;18.30;48.00;;;;;;5061533;28;20528;-82
2022/02/22 06:12:04;;;;;;;1.50;0.68;;;18.20;48.30;;;;;;5044663;28;20701;-82
2022/02/22 06:14:30;;;;;;;0.82;0.70;;;18.30;47.80;;;;;;5078194;28;20156;-83
2022/02/22 06:16:56;;;;;;;0.90;0.60;;;18.30;47.70;;;;;;5078080;28;20303;-83
2022/02/22 06:19:23;;;;;;;1.23;0.63;;;18.30;47.40;;;;;;5061967;28;20165;-83
2022/02/22 06:21:49;;;;;;;1.05;0.50;;;18.40;47.10;;;;;;5078187;28;20157;-83
2022/02/22 06:24:14;;;;;;;1.48;0.80;;;18.30;47.40;;;;;;5096028;28;20228;-82
2022/02/22 06:26:45;;;;;;;0.85;0.70;;;18.40;47.50;;;;;;5061321;28;20330;-83
2022/02/22 06:29:10;;;;;;;2.25;0.60;;;18.40;46.90;;;;;;5037087;28;20209;-83
2022/02/22 06:31:37;;;;;;;0.60;0.60;;;18.40;47.20;;;;;;5021442;28;20617;-82
2022/02/22 06:34:06;;;;;;;0.60;0.52;;;18.40;47.40;;;;;;5053740;28;20181;-83
2022/02/22 06:36:32;;;;;;;0.43;0.40;;;18.40;47.00;;;;;;5021051;28;20194;-82
2022/02/22 06:38:58;;;;;;;4.20;0.70;;;18.40;47.20;;;;;;5038152;28;20154;-82
2022/02/22 06:41:24;;;;;;;0.98;0.50;;;18.40;47.10;;;;;;5021324;28;20162;-82
2022/02/22 06:43:49;;;;;;;0.68;0.60;;;18.40;47.60;;;;;;5054382;28;20613;-82
2022/02/22 06:46:18;;;;;;;0.95;0.70;;;18.40;47.10;;;;;;5058066;28;20173;-84
2022/02/22 06:48:44;;;;;;;1.05;0.73;;;18.40;46.80;;;;;;5023313;28;20211;-82
2022/02/22 06:51:10;;;;;;;1.33;0.70;;;18.40;46.90;;;;;;5038961;28;20158;-82
2022/02/22 06:53:37;;;;;;;1.27;0.77;;;18.40;46.90;;;;;;5071376;28;20177;-82
2022/02/22 06:56:05;;;;;;;0.63;0.55;;;18.40;46.80;;;;;;5056575;28;20626;-82
2022/02/22 06:58:32;;;;;;;0.88;0.70;;;18.40;46.60;;;;;;5039903;28;20181;-82
2022/02/22 07:01:00;;;;;;;0.95;0.60;;;18.40;46.70;;;;;;5023644;28;20581;-82
2022/02/22 07:03:27;;;;;;;2.55;0.68;;;18.40;46.60;;;;;;5040059;28;20181;-82
2022/02/22 07:05:54;;;;;;;1.15;0.75;;;18.50;47.10;;;;;;5039707;28;20193;-82
2022/02/22 07:08:22;;;;;;;1.65;0.70;;;18.50;46.20;;;;;;5023299;28;20711;-82
2022/02/22 07:10:49;;;;;;;0.80;0.80;;;18.50;46.60;;;;;;5039833;28;20260;-82
2022/02/22 07:13:16;;;;;;;1.60;0.73;;;18.40;46.40;;;;;;5073893;28;20515;-82
2022/02/22 07:15:43;;;;;;;0.50;0.50;;;18.40;46.20;;;;;;5039494;28;20209;-82
2022/02/22 07:18:11;;;;;;;0.63;0.50;;;18.40;45.70;;;;;;5023121;28;20177;-82
2022/02/22 07:20:38;;;;;;;1.23;0.70;;;18.50;45.90;;;;;;5040398;28;20196;-82
2022/02/22 07:23:04;;;;;;;0.80;0.60;;;18.40;46.00;;;;;;5023064;28;20180;-82
2022/02/22 07:25:30;;;;;;;0.90;0.60;;;18.50;46.80;;;;;;5040006;28;20249;-82
2022/02/22 07:27:57;;;;;;;1.23;0.80;;;18.50;46.00;;;;;;5054236;28;20170;-82
2022/02/22 07:30:23;;;;;;;0.70;0.60;;;18.50;45.80;;;;;;5054537;28;20218;-82
2022/02/22 07:32:50;;;;;;;0.88;0.60;;;18.50;45.70;;;;;;5037279;28;20165;-82
2022/02/22 07:35:15;;;;;;;0.93;0.73;;;18.50;45.40;;;;;;5053424;28;20190;-82
2022/02/22 07:37:43;;;;;;;0.77;0.77;;;18.60;45.60;;;;;;5066471;28;20169;-83
2022/02/22 07:40:09;;;;;;;1.45;0.80;;;18.50;45.50;;;;;;5049740;28;20173;-81
2022/02/22 07:42:36;;;;;;;1.33;0.90;;;18.50;45.80;;;;;;5054992;28;20158;-82
2022/02/22 07:45:05;;;;;;;0.80;0.63;;;18.50;45.30;;;;;;5040034;28;20166;-81
2022/02/22 07:47:31;;;;;;;1.92;0.90;;;18.50;45.30;;;;;;5036966;28;20629;-81
2022/02/22 07:49:58;;;;;;;2.15;0.80;;;18.40;45.90;;;;;;5037587;28;20168;-82
2022/02/22 07:52:27;;;;;;;0.95;0.82;;;18.50;45.30;;;;;;5037613;28;20158;-83
2022/02/22 07:54:53;;;;;;;1.13;0.80;;;18.50;46.10;;;;;;5002500;28;20169;-82
2022/02/22 07:57:19;;;;;;;3.08;0.80;;;18.40;45.60;;;;;;5020267;28;20180;-82
2022/02/22 07:59:47;;;;;;;2.88;0.80;;;18.50;45.60;;;;;;5034464;28;20157;-82
2022/02/22 08:02:15;;;;;;;4.15;1.00;;;18.50;45.20;;;;;;5018821;28;20190;-82
2022/02/22 08:04:43;;;;;;;6.72;1.40;;;18.50;45.50;;;;;;5018400;28;20193;-82
2022/02/22 08:07:11;;;;;;;7.43;1.75;;;18.50;45.50;;;;;;5020482;28;20192;-82
2022/02/22 08:09:39;;;;;;;7.45;1.23;;;18.50;45.30;;;;;;5036332;28;20214;-83
2022/02/22 08:12:07;;;;;;;12.20;1.40;;;18.50;45.10;;;;;;5036224;28;20186;-82
2022/02/22 08:14:34;;;;;;;12.75;1.75;;;18.50;45.10;;;;;;5019571;28;20694;-82
2022/02/22 08:17:02;;;;;;;14.10;1.63;;;18.50;45.70;;;;;;5003140;28;20221;-82
2022/02/22 08:19:29;;;;;;;6.43;1.00;;;18.50;45.00;;;;;;5002745;28;20189;-82
2022/02/22 08:21:57;;;;;;;11.88;1.30;;;18.50;44.80;;;;;;5002764;28;20189;-82
2022/02/22 08:24:24;;;;;;;3.03;1.10;;;18.50;44.90;;;;;;5035672;28;20201;-82
2022/02/22 08:26:54;;;;;;;3.97;0.98;;;18.50;44.40;;;;;;5002409;28;20562;-82
2022/02/22 08:29:19;;;;;;;1.67;1.10;;;18.50;44.80;;;;;;5002260;28;20672;-82
2022/02/22 08:31:47;;;;;;;4.60;0.80;;;18.50;44.90;;;;;;5019648;28;20170;-82
2022/02/22 08:34:13;;;;;;;3.70;1.00;;;18.60;44.80;;;;;;5001980;28;20544;-82
2022/02/22 08:36:40;;;;;;;4.28;1.00;;;18.50;44.40;;;;;;5018776;28;20241;-82
2022/02/22 08:39:07;;;;;;;1.90;1.00;;;18.50;44.40;;;;;;5002336;28;20190;-82
2022/02/22 08:41:34;;;;;;;5.43;1.05;;;18.50;44.40;;;;;;5018755;28;20641;-82
2022/02/22 08:44:01;;;;;;;6.03;1.20;;;18.50;44.30;;;;;;5034812;28;20192;-82
2022/02/22 08:46:28;;;;;;;1.95;1.15;;;18.50;43.70;;;;;;5036264;28;20185;-82
2022/02/22 08:48:54;;;;;;;2.92;1.30;;;18.60;44.20;;;;;;5052271;28;20154;-82
2022/02/22 08:51:20;;;;;;;3.72;0.85;;;18.60;44.20;;;;;;5053388;28;20223;-82
2022/02/22 08:53:46;;;;;;;2.70;1.05;;;18.60;43.90;;;;;;5035969;28;20170;-83
2022/02/22 08:56:13;;;;;;;5.93;1.40;;;18.60;44.00;;;;;;5035292;28;20292;-81
2022/02/22 08:58:39;;;;;;;3.63;0.93;;;18.60;44.10;;;;;;5035194;28;20627;-82
2022/02/22 09:01:06;;;;;;;2.33;0.90;;;18.60;44.20;;;;;;5040574;28;20162;-82
2022/02/22 09:03:32;;;;;;;7.97;1.30;;;18.60;43.50;;;;;;5025097;28;20329;-83
2022/02/22 09:05:59;;;;;;;3.45;0.85;;;18.60;43.10;;;;;;5055508;28;20185;-82
2022/02/22 09:08:25;;;;;;;3.45;1.00;;;18.60;43.80;;;;;;5036817;28;20165;-82
2022/02/22 09:10:51;;;;;;;6.15;1.13;;;18.60;43.60;;;;;;5057334;28;20207;-82
2022/02/22 09:13:16;;;;;;;3.13;1.15;;;18.60;43.80;;;;;;5056537;28;20169;-83
2022/02/22 09:15:43;;;;;;;2.75;1.10;;;18.60;44.00;;;;;;5058035;28;20619;-82
2022/02/22 09:18:10;;;;;;;3.85;0.90;;;18.60;43.90;;;;;;5040809;28;20158;-82
2022/02/22 09:20:36;;;;;;;3.58;1.20;;;18.70;43.70;;;;;;5075310;28;20189;-83
2022/02/22 09:23:02;;;;;;;2.33;1.00;;;18.60;44.10;;;;;;5061491;28;20158;-82
2022/02/22 09:25:32;;;;;;;1.55;0.90;;;18.70;43.70;;;;;;5065374;28;20249;-82
2022/02/22 09:28:00;;;;;;;9.80;1.27;;;18.70;43.60;;;;;;5064058;28;20165;-82
2022/02/22 09:30:26;;;;;;;3.22;0.90;;;18.60;43.30;;;;;;5080952;28;20228;-82
2022/02/22 09:32:51;;;;;;;1.33;1.00;;;18.70;43.70;;;;;;5077981;28;20192;-82
2022/02/22 09:35:19;;;;;;;4.00;1.10;;;18.70;43.70;;;;;;5058801;28;20197;-82
2022/02/22 09:37:45;;;;;;;3.17;1.00;;;18.70;43.40;;;;;;5058517;28;20508;-82
2022/02/22 09:40:12;;;;;;;3.80;0.98;;;18.70;43.80;;;;;;5071545;28;20672;-82
2022/02/22 09:42:37;;;;;;;2.72;1.00;;;18.70;43.00;;;;;;5036594;28;20169;-82
2022/02/22 09:45:06;;;;;;;2.35;1.25;;;18.70;43.00;;;;;;5051857;28;20261;-82
2022/02/22 09:47:33;;;;;;;3.08;1.05;;;18.70;43.60;;;;;;5039008;28;20242;-82
2022/02/22 09:49:59;;;;;;;2.28;0.80;;;18.60;43.60;;;;;;5054307;28;20150;-82
2022/02/22 09:52:26;;;;;;;2.63;1.00;;;18.70;42.90;;;;;;5052212;28;20155;-83
2022/02/22 09:55:25;;;;;;;3.75;1.00;;;18.70;42.70;;;;;;5026595;28;20182;-83
2022/02/22 09:57:51;;;;;;;1.45;1.08;;;18.70;42.70;;;;;;5020656;28;20637;-83
2022/02/22 10:00:23;;;;;;;1.27;0.90;;;18.70;42.80;;;;;;5018160;28;20229;-82
2022/02/22 10:02:53;;;;;;;4.45;1.08;;;18.70;42.60;;;;;;5017400;28;20277;-83
2022/02/22 10:05:24;;;;;;;2.50;0.98;;;18.70;42.60;;;;;;5018175;28;20244;-82
2022/02/22 10:07:59;;;;;;;1.73;1.00;;;18.70;42.60;;;;;;5017075;28;20595;-82
2022/02/22 10:10:38;;;;;;;2.13;0.93;;;18.70;42.60;;;;;;5020519;28;20193;-83
2022/02/22 10:13:16;;;;;;;2.92;1.00;;;18.70;42.60;;;;;;5039276;28;20178;-81
2022/02/22 10:15:46;;;;;;;2.40;1.40;;;18.70;42.40;;;;;;5024885;28;20284;-83
2022/02/22 10:18:16;;;;;;;1.40;1.00;;;18.80;42.40;;;;;;5006039;28;20174;-83
2022/02/22 10:20:47;;;;;;;3.15;1.05;;;18.70;42.20;;;;;;5008090;28;20185;-82
2022/02/22 10:23:28;;;;;;;2.05;1.20;;;18.80;42.60;;;;;;5025181;28;20182;-83
2022/02/22 10:25:58;;;;;;;2.35;1.00;;;18.80;42.70;;;;;;5008906;28;20193;-83
2022/02/22 10:28:27;;;;;;;1.38;1.08;;;18.80;42.40;;;;;;5006446;28;20661;-82
2022/02/22 10:30:56;;;;;;;2.20;1.27;;;18.80;42.20;;;;;;5021572;28;20264;-83
2022/02/22 10:33:23;;;;;;;1.23;0.90;;;18.80;42.40;;;;;;4990679;28;20231;-84
2022/02/22 10:35:51;;;;;;;2.47;1.02;;;18.80;42.20;;;;;;5035217;28;20187;-82
2022/02/22 10:38:22;;;;;;;1.50;0.98;;;18.80;42.00;;;;;;5015973;28;20186;-82
2022/02/22 10:41:14;;;;;;;1.95;1.38;;;18.80;42.30;;;;;;5019809;28;20179;-82
2022/02/22 10:43:53;;;;;;;5.05;1.20;;;18.80;42.60;;;;;;5035229;28;20171;-82
2022/02/22 10:46:27;;;;;;;1.08;0.98;;;18.80;42.70;;;;;;5004438;28;20170;-83
2022/02/22 10:49:09;;;;;;;2.75;1.30;;;18.80;42.50;;;;;;5021271;28;20178;-82
2022/02/22 10:51:39;;;;;;;2.40;1.23;;;18.80;42.60;;;;;;5037127;28;20177;-82
2022/02/22 10:54:06;;;;;;;1.63;1.05;;;18.80;42.30;;;;;;5051664;28;20170;-82
2022/02/22 10:56:32;;;;;;;3.22;1.40;;;18.80;42.00;;;;;;5056426;28;20645;-83
2022/02/22 10:58:58;;;;;;;2.88;1.25;;;18.80;42.10;;;;;;5039131;28;20215;-83
2022/02/22 11:01:34;;;;;;;1.55;1.25;;;18.80;41.20;;;;;;5055423;28;20236;-82
2022/02/22 11:03:59;;;;;;;1.88;0.93;;;18.80;42.30;;;;;;5057205;28;20181;-82
2022/02/22 11:06:25;;;;;;;2.22;1.17;;;18.90;41.10;;;;;;5055808;28;21874;-82
2022/02/22 11:08:53;;;;;;;1.85;0.98;;;18.90;41.60;;;;;;5056197;28;20550;-82
2022/02/22 11:11:38;;;;;;;1.60;1.10;;;18.90;41.40;;;;;;5035029;28;20175;-82
2022/02/22 11:14:06;;;;;;;5.25;1.20;;;18.90;41.60;;;;;;5036213;28;20159;-82
2022/02/22 11:16:41;;;;;;;2.15;1.10;;;18.90;41.70;;;;;;5035578;28;20190;-82
2022/02/22 11:19:17;;;;;;;2.17;1.20;;;18.90;41.80;;;;;;5035681;28;20151;-82
2022/02/22 11:21:44;;;;;;;2.78;1.40;;;18.80;41.50;;;;;;5033347;28;20166;-82
2022/02/22 11:24:10;;;;;;;1.80;1.30;;;18.80;41.60;;;;;;5017577;28;20169;-82
2022/02/22 11:26:52;;;;;;;2.58;1.35;;;18.90;41.70;;;;;;5016812;28;20173;-81
2022/02/22 11:29:19;;;;;;;1.98;1.23;;;19.00;41.90;;;;;;5038760;28;20232;-81
2022/02/22 11:32:04;;;;;;;1.90;1.27;;;18.80;41.70;;;;;;5020622;28;20159;-82
2022/02/22 11:34:36;;;;;;;2.63;1.50;;;18.90;41.70;;;;;;5053642;28;20173;-82
2022/02/22 11:37:04;;;;;;;1.55;1.40;;;19.00;41.70;;;;;;5053743;28;20655;-82
2022/02/22 11:39:30;;;;;;;3.92;1.30;;;18.90;41.60;;;;;;5053256;28;20154;-82
2022/02/22 11:41:56;;;;;;;4.28;1.20;;;18.90;41.20;;;;;;5053264;28;20154;-82
2022/02/22 11:44:23;;;;;;;2.72;1.20;;;18.90;41.30;;;;;;5053492;28;20154;-82
2022/02/22 11:46:52;;;;;;;3.33;1.38;;;18.90;40.90;;;;;;5003109;28;20182;-81
2022/02/22 11:49:27;;;;;;;1.90;1.40;;;19.00;41.00;;;;;;5004386;28;20178;-82
2022/02/22 11:51:54;;;;;;;2.10;1.23;;;19.10;40.50;;;;;;5035849;28;20264;-82
2022/02/22 11:54:21;;;;;;;3.10;1.27;;;19.10;41.00;;;;;;5053589;28;20715;-82
2022/02/22 11:56:47;;;;;;;2.20;1.40;;;19.00;41.00;;;;;;5044624;28;20207;-83
2022/02/22 11:59:17;;;;;;;1.33;1.20;;;19.00;41.10;;;;;;5077026;28;20181;-82
2022/02/22 12:01:44;;;;;;;3.00;1.40;;;19.00;40.60;;;;;;5056926;28;20158;-82
2022/02/22 12:04:21;;;;;;;3.22;1.33;;;19.00;40.90;;;;;;5056486;28;20635;-83
2022/02/22 12:06:49;;;;;;;2.15;1.33;;;18.90;40.80;;;;;;5010136;28;20182;-82
2022/02/22 12:09:18;;;;;;;1.92;1.30;;;18.90;40.70;;;;;;5036296;28;20184;-82
2022/02/22 12:11:43;;;;;;;2.22;1.10;;;18.90;40.80;;;;;;5035861;28;20578;-82
2022/02/22 12:14:12;;;;;;;2.30;1.25;;;18.90;40.80;;;;;;5056798;28;20170;-82
2022/02/22 12:16:42;;;;;;;1.50;1.30;;;18.90;41.40;;;;;;5056888;28;20197;-83
2022/02/22 12:19:09;;;;;;;1.38;1.20;;;18.90;40.50;;;;;;5056995;28;20168;-83
2022/02/22 12:21:37;;;;;;;1.88;1.23;;;18.90;40.40;;;;;;5053940;28;20173;-83
2022/02/22 12:24:03;;;;;;;1.60;1.27;;;18.90;40.60;;;;;;5021156;28;20162;-82
2022/02/22 12:26:29;;;;;;;3.15;1.42;;;18.90;40.90;;;;;;5052747;28;20154;-82
2022/02/22 12:28:58;;;;;;;1.60;1.15;;;18.90;41.00;;;;;;5021383;28;20212;-82
2022/02/22 12:31:28;;;;;;;1.38;1.17;;;18.90;40.80;;;;;;5041418;28;20154;-83
2022/02/22 12:33:58;;;;;;;2.17;1.40;;;18.90;40.70;;;;;;5075975;28;20156;-82
2022/02/22 12:36:26;;;;;;;1.77;1.23;;;18.80;40.40;;;;;;5076655;28;20245;-83
2022/02/22 12:38:54;;;;;;;6.00;1.55;;;18.90;40.50;;;;;;5060710;28;20168;-83
2022/02/22 12:41:26;;;;;;;2.70;1.30;;;18.90;40.80;;;;;;5095033;28;20161;-82
2022/02/22 12:43:53;;;;;;;2.17;1.45;;;18.90;40.50;;;;;;5061187;28;20237;-82
2022/02/22 12:46:20;;;;;;;1.75;1.40;;;18.90;40.20;;;;;;5043065;28;20184;-83